sensor_id;sensor_type;location;lat;lon;timestamp;temperature;humidity
54938;DHT22;52756;52.826;6.214;2023-03-11T00:00:59;1.70;83.20
54938;DHT22;52756;52.826;6.214;2023-03-11T00:03:25;1.70;83.20
54938;DHT22;52756;52.826;6.214;2023-03-11T00:05:54;2.00;83.30
54938;DHT22;52756;52.826;6.214;2023-03-11T00:08:22;1.70;83.10
54938;DHT22;52756;52.826;6.214;2023-03-11T00:10:52;1.70;83.10
54938;DHT22;52756;52.826;6.214;2023-03-11T00:13:19;1.70;83.10
54938;DHT22;52756;52.826;6.214;2023-03-11T00:15:47;1.70;83.20
54938;DHT22;52756;52.826;6.214;2023-03-11T00:18:13;1.60;83.10
54938;DHT22;52756;52.826;6.214;2023-03-11T00:20:41;1.60;83.50
54938;DHT22;52756;52.826;6.214;2023-03-11T00:23:08;1.60;83.10
54938;DHT22;52756;52.826;6.214;2023-03-11T00:25:35;1.60;83.60
54938;DHT22;52756;52.826;6.214;2023-03-11T00:28:01;1.70;83.30
54938;DHT22;52756;52.826;6.214;2023-03-11T00:30:28;1.60;83.30
54938;DHT22;52756;52.826;6.214;2023-03-11T00:32:56;1.60;83.30
54938;DHT22;52756;52.826;6.214;2023-03-11T00:35:25;1.60;83.30
54938;DHT22;52756;52.826;6.214;2023-03-11T00:37:56;1.60;83.20
54938;DHT22;52756;52.826;6.214;2023-03-11T00:40:24;1.60;83.10
54938;DHT22;52756;52.826;6.214;2023-03-11T00:42:50;1.60;82.90
54938;DHT22;52756;52.826;6.214;2023-03-11T00:45:16;2.10;83.20
54938;DHT22;52756;52.826;6.214;2023-03-11T00:47:41;1.60;82.70
54938;DHT22;52756;52.826;6.214;2023-03-11T00:50:08;1.60;82.70
54938;DHT22;52756;52.826;6.214;2023-03-11T00:52:36;1.60;82.70
54938;DHT22;52756;52.826;6.214;2023-03-11T00:55:04;1.60;82.60
54938;DHT22;52756;52.826;6.214;2023-03-11T00:57:30;1.60;82.40
54938;DHT22;52756;52.826;6.214;2023-03-11T00:59:55;1.60;82.30
54938;DHT22;52756;52.826;6.214;2023-03-11T01:02:21;1.60;82.10
54938;DHT22;52756;52.826;6.214;2023-03-11T01:04:47;1.60;82.00
54938;DHT22;52756;52.826;6.214;2023-03-11T01:07:17;1.60;81.80
54938;DHT22;52756;52.826;6.214;2023-03-11T01:09:43;2.10;82.30
54938;DHT22;52756;52.826;6.214;2023-03-11T01:12:08;1.60;81.40
54938;DHT22;52756;52.826;6.214;2023-03-11T01:14:34;1.70;81.40
54938;DHT22;52756;52.826;6.214;2023-03-11T01:16:59;1.60;81.30
54938;DHT22;52756;52.826;6.214;2023-03-11T01:19:25;2.30;81.60
54938;DHT22;52756;52.826;6.214;2023-03-11T01:21:51;1.60;81.10
54938;DHT22;52756;52.826;6.214;2023-03-11T01:24:16;1.60;80.90
54938;DHT22;52756;52.826;6.214;2023-03-11T01:26:42;1.60;80.80
54938;DHT22;52756;52.826;6.214;2023-03-11T01:29:09;1.60;80.70
54938;DHT22;52756;52.826;6.214;2023-03-11T01:31:34;1.60;80.70
54938;DHT22;52756;52.826;6.214;2023-03-11T01:34:00;1.60;80.70
54938;DHT22;52756;52.826;6.214;2023-03-11T01:36:26;1.60;80.60
54938;DHT22;52756;52.826;6.214;2023-03-11T01:38:52;1.60;80.60
54938;DHT22;52756;52.826;6.214;2023-03-11T01:41:17;1.60;80.60
54938;DHT22;52756;52.826;6.214;2023-03-11T01:48:52;1.60;80.60
54938;DHT22;52756;52.826;6.214;2023-03-11T01:51:19;1.70;80.60
54938;DHT22;52756;52.826;6.214;2023-03-11T01:53:47;1.60;80.40
54938;DHT22;52756;52.826;6.214;2023-03-11T01:56:13;1.60;80.70
54938;DHT22;52756;52.826;6.214;2023-03-11T01:58:41;1.70;80.70
54938;DHT22;52756;52.826;6.214;2023-03-11T02:01:09;1.70;80.70
54938;DHT22;52756;52.826;6.214;2023-03-11T02:03:38;1.70;80.70
54938;DHT22;52756;52.826;6.214;2023-03-11T02:06:15;1.70;80.60
54938;DHT22;52756;52.826;6.214;2023-03-11T02:08:41;1.70;80.60
54938;DHT22;52756;52.826;6.214;2023-03-11T02:11:11;1.80;80.70
54938;DHT22;52756;52.826;6.214;2023-03-11T02:13:40;1.80;80.60
54938;DHT22;52756;52.826;6.214;2023-03-11T02:16:07;1.70;80.60
54938;DHT22;52756;52.826;6.214;2023-03-11T02:18:33;1.80;80.50
54938;DHT22;52756;52.826;6.214;2023-03-11T02:24:09;1.80;80.30
54938;DHT22;52756;52.826;6.214;2023-03-11T02:29:13;1.70;80.10
54938;DHT22;52756;52.826;6.214;2023-03-11T02:31:40;1.80;80.00
54938;DHT22;52756;52.826;6.214;2023-03-11T02:34:13;2.30;80.20
54938;DHT22;52756;52.826;6.214;2023-03-11T02:36:41;1.90;79.90
54938;DHT22;52756;52.826;6.214;2023-03-11T02:39:08;1.80;79.80
54938;DHT22;52756;52.826;6.214;2023-03-11T02:41:37;1.70;79.80
54938;DHT22;52756;52.826;6.214;2023-03-11T02:44:08;2.20;80.20
54938;DHT22;52756;52.826;6.214;2023-03-11T02:46:35;2.10;80.20
54938;DHT22;52756;52.826;6.214;2023-03-11T02:49:02;1.80;80.10
54938;DHT22;52756;52.826;6.214;2023-03-11T02:51:29;2.00;80.20
54938;DHT22;52756;52.826;6.214;2023-03-11T02:53:57;2.10;80.30
54938;DHT22;52756;52.826;6.214;2023-03-11T02:56:24;1.80;80.00
54938;DHT22;52756;52.826;6.214;2023-03-11T02:58:50;1.80;79.90
54938;DHT22;52756;52.826;6.214;2023-03-11T03:01:16;1.80;79.80
54938;DHT22;52756;52.826;6.214;2023-03-11T03:03:41;1.80;79.40
54938;DHT22;52756;52.826;6.214;2023-03-11T03:06:07;2.00;79.50
54938;DHT22;52756;52.826;6.214;2023-03-11T03:08:33;1.80;79.40
54938;DHT22;52756;52.826;6.214;2023-03-11T03:10:58;2.40;79.70
54938;DHT22;52756;52.826;6.214;2023-03-11T03:13:26;1.80;79.20
54938;DHT22;52756;52.826;6.214;2023-03-11T03:15:51;1.90;79.20
54938;DHT22;52756;52.826;6.214;2023-03-11T03:18:17;2.00;79.30
54938;DHT22;52756;52.826;6.214;2023-03-11T03:20:43;1.70;79.00
54938;DHT22;52756;52.826;6.214;2023-03-11T03:23:09;1.80;79.00
54938;DHT22;52756;52.826;6.214;2023-03-11T03:25:34;2.30;79.30
54938;DHT22;52756;52.826;6.214;2023-03-11T03:28:00;1.80;78.90
54938;DHT22;52756;52.826;6.214;2023-03-11T03:30:26;1.80;78.90
54938;DHT22;52756;52.826;6.214;2023-03-11T03:32:54;1.80;79.00
54938;DHT22;52756;52.826;6.214;2023-03-11T03:35:20;2.20;79.30
54938;DHT22;52756;52.826;6.214;2023-03-11T03:37:46;2.10;79.30
54938;DHT22;52756;52.826;6.214;2023-03-11T03:40:12;1.80;79.10
54938;DHT22;52756;52.826;6.214;2023-03-11T03:42:38;1.70;79.10
54938;DHT22;52756;52.826;6.214;2023-03-11T03:45:06;1.70;79.20
54938;DHT22;52756;52.826;6.214;2023-03-11T03:47:33;1.70;79.20
54938;DHT22;52756;52.826;6.214;2023-03-11T03:49:59;1.80;79.40
54938;DHT22;52756;52.826;6.214;2023-03-11T03:52:25;1.90;79.50
54938;DHT22;52756;52.826;6.214;2023-03-11T03:54:50;1.80;79.40
54938;DHT22;52756;52.826;6.214;2023-03-11T03:57:16;1.80;79.40
54938;DHT22;52756;52.826;6.214;2023-03-11T03:59:42;1.90;79.40
54938;DHT22;52756;52.826;6.214;2023-03-11T04:02:08;2.00;79.30
54938;DHT22;52756;52.826;6.214;2023-03-11T04:04:33;1.70;78.90
54938;DHT22;52756;52.826;6.214;2023-03-11T04:06:59;1.80;78.80
54938;DHT22;52756;52.826;6.214;2023-03-11T04:09:25;2.30;79.00
54938;DHT22;52756;52.826;6.214;2023-03-11T04:11:50;1.80;78.70
54938;DHT22;52756;52.826;6.214;2023-03-11T04:14:16;1.80;78.70
54938;DHT22;52756;52.826;6.214;2023-03-11T04:16:42;1.70;78.70
54938;DHT22;52756;52.826;6.214;2023-03-11T04:19:08;1.80;78.80
54938;DHT22;52756;52.826;6.214;2023-03-11T04:21:34;1.90;78.90
54938;DHT22;52756;52.826;6.214;2023-03-11T04:24:00;1.80;78.90
54938;DHT22;52756;52.826;6.214;2023-03-11T04:26:26;1.80;78.90
54938;DHT22;52756;52.826;6.214;2023-03-11T04:28:53;1.70;78.80
54938;DHT22;52756;52.826;6.214;2023-03-11T04:31:18;2.20;79.10
54938;DHT22;52756;52.826;6.214;2023-03-11T04:33:44;2.00;79.00
54938;DHT22;52756;52.826;6.214;2023-03-11T04:36:11;2.40;79.20
54938;DHT22;52756;52.826;6.214;2023-03-11T04:38:37;1.80;78.80
54938;DHT22;52756;52.826;6.214;2023-03-11T04:41:03;1.70;78.70
54938;DHT22;52756;52.826;6.214;2023-03-11T04:43:30;1.80;78.60
54938;DHT22;52756;52.826;6.214;2023-03-11T04:45:56;1.90;78.60
54938;DHT22;52756;52.826;6.214;2023-03-11T04:48:22;1.70;78.30
54938;DHT22;52756;52.826;6.214;2023-03-11T04:50:49;1.70;78.70
54938;DHT22;52756;52.826;6.214;2023-03-11T04:53:15;2.10;78.40
54938;DHT22;52756;52.826;6.214;2023-03-11T04:55:40;1.90;78.10
54938;DHT22;52756;52.826;6.214;2023-03-11T04:58:06;2.30;78.20
54938;DHT22;52756;52.826;6.214;2023-03-11T05:00:32;2.10;78.00
54938;DHT22;52756;52.826;6.214;2023-03-11T05:02:57;1.90;77.80
54938;DHT22;52756;52.826;6.214;2023-03-11T05:05:23;1.60;77.60
54938;DHT22;52756;52.826;6.214;2023-03-11T05:07:49;1.60;77.50
54938;DHT22;52756;52.826;6.214;2023-03-11T05:10:15;2.10;77.90
54938;DHT22;52756;52.826;6.214;2023-03-11T05:12:48;1.60;77.50
54938;DHT22;52756;52.826;6.214;2023-03-11T05:15:14;1.60;77.50
54938;DHT22;52756;52.826;6.214;2023-03-11T05:17:39;1.90;77.70
54938;DHT22;52756;52.826;6.214;2023-03-11T05:20:05;1.50;77.40
54938;DHT22;52756;52.826;6.214;2023-03-11T05:22:33;1.60;77.40
54938;DHT22;52756;52.826;6.214;2023-03-11T05:24:59;1.80;77.50
54938;DHT22;52756;52.826;6.214;2023-03-11T05:27:24;1.50;77.20
54938;DHT22;52756;52.826;6.214;2023-03-11T05:29:50;1.50;77.10
54938;DHT22;52756;52.826;6.214;2023-03-11T05:32:16;1.80;77.40
54938;DHT22;52756;52.826;6.214;2023-03-11T05:34:44;1.50;77.20
54938;DHT22;52756;52.826;6.214;2023-03-11T05:37:10;1.70;77.30
54938;DHT22;52756;52.826;6.214;2023-03-11T05:39:35;1.50;77.20
54938;DHT22;52756;52.826;6.214;2023-03-11T05:42:03;1.50;77.30
54938;DHT22;52756;52.826;6.214;2023-03-11T05:44:29;1.40;77.30
54938;DHT22;52756;52.826;6.214;2023-03-11T05:46:55;2.10;77.80
54938;DHT22;52756;52.826;6.214;2023-03-11T05:49:21;1.40;77.40
54938;DHT22;52756;52.826;6.214;2023-03-11T05:51:48;1.40;77.50
54938;DHT22;52756;52.826;6.214;2023-03-11T05:54:13;1.50;77.60
54938;DHT22;52756;52.826;6.214;2023-03-11T05:56:44;1.40;77.60
54938;DHT22;52756;52.826;6.214;2023-03-11T05:59:11;1.40;77.70
54938;DHT22;52756;52.826;6.214;2023-03-11T06:01:37;1.80;78.00
54938;DHT22;52756;52.826;6.214;2023-03-11T06:04:04;1.70;77.90
54938;DHT22;52756;52.826;6.214;2023-03-11T06:06:30;1.60;77.90
54938;DHT22;52756;52.826;6.214;2023-03-11T06:08:56;1.40;77.70
54938;DHT22;52756;52.826;6.214;2023-03-11T06:11:22;1.40;77.70
54938;DHT22;52756;52.826;6.214;2023-03-11T06:13:52;1.70;77.90
54938;DHT22;52756;52.826;6.214;2023-03-11T06:16:22;1.40;77.60
54938;DHT22;52756;52.826;6.214;2023-03-11T06:18:49;1.40;77.60
54938;DHT22;52756;52.826;6.214;2023-03-11T06:21:20;1.60;77.60
54938;DHT22;52756;52.826;6.214;2023-03-11T06:23:47;1.50;77.40
54938;DHT22;52756;52.826;6.214;2023-03-11T06:26:15;2.00;78.00
54938;DHT22;52756;52.826;6.214;2023-03-11T06:28:45;1.60;77.30
54938;DHT22;52756;52.826;6.214;2023-03-11T06:31:23;2.00;77.40
54938;DHT22;52756;52.826;6.214;2023-03-11T06:33:50;1.40;77.00
54938;DHT22;52756;52.826;6.214;2023-03-11T06:36:17;1.40;77.00
54938;DHT22;52756;52.826;6.214;2023-03-11T06:38:43;1.40;77.00
54938;DHT22;52756;52.826;6.214;2023-03-11T06:41:11;1.30;77.30
54938;DHT22;52756;52.826;6.214;2023-03-11T06:43:37;1.40;77.00
54938;DHT22;52756;52.826;6.214;2023-03-11T06:46:20;1.80;77.20
54938;DHT22;52756;52.826;6.214;2023-03-11T06:48:46;1.70;77.10
54938;DHT22;52756;52.826;6.214;2023-03-11T06:51:12;1.40;76.90
54938;DHT22;52756;52.826;6.214;2023-03-11T06:53:38;1.90;77.20
54938;DHT22;52756;52.826;6.214;2023-03-11T06:56:08;1.40;76.90
54938;DHT22;52756;52.826;6.214;2023-03-11T06:58:35;1.40;76.90
54938;DHT22;52756;52.826;6.214;2023-03-11T07:01:12;2.00;77.30
54938;DHT22;52756;52.826;6.214;2023-03-11T07:03:38;1.90;77.20
54938;DHT22;52756;52.826;6.214;2023-03-11T07:06:05;1.40;77.30
54938;DHT22;52756;52.826;6.214;2023-03-11T07:08:31;1.40;76.90
54938;DHT22;52756;52.826;6.214;2023-03-11T07:11:14;1.50;77.00
54938;DHT22;52756;52.826;6.214;2023-03-11T07:13:40;1.40;77.00
54938;DHT22;52756;52.826;6.214;2023-03-11T07:16:12;1.90;77.30
54938;DHT22;52756;52.826;6.214;2023-03-11T07:18:40;1.40;77.00
54938;DHT22;52756;52.826;6.214;2023-03-11T07:21:07;1.40;77.00
54938;DHT22;52756;52.826;6.214;2023-03-11T07:23:34;1.50;77.00
54938;DHT22;52756;52.826;6.214;2023-03-11T07:25:59;1.60;77.10
54938;DHT22;52756;52.826;6.214;2023-03-11T07:28:26;1.50;77.10
54938;DHT22;52756;52.826;6.214;2023-03-11T07:30:53;1.50;77.30
54938;DHT22;52756;52.826;6.214;2023-03-11T07:33:20;1.70;77.70
54938;DHT22;52756;52.826;6.214;2023-03-11T07:35:49;1.60;77.80
54938;DHT22;52756;52.826;6.214;2023-03-11T07:38:15;1.70;77.80
54938;DHT22;52756;52.826;6.214;2023-03-11T07:40:42;1.70;77.80
54938;DHT22;52756;52.826;6.214;2023-03-11T07:43:09;1.80;77.70
54938;DHT22;52756;52.826;6.214;2023-03-11T07:45:34;2.50;78.50
54938;DHT22;52756;52.826;6.214;2023-03-11T07:48:00;1.90;77.60
54938;DHT22;52756;52.826;6.214;2023-03-11T07:50:26;2.50;77.90
54938;DHT22;52756;52.826;6.214;2023-03-11T07:52:52;2.10;77.50
54938;DHT22;52756;52.826;6.214;2023-03-11T07:55:17;2.20;77.50
54938;DHT22;52756;52.826;6.214;2023-03-11T07:57:46;2.20;77.40
54938;DHT22;52756;52.826;6.214;2023-03-11T08:00:13;2.70;77.60
54938;DHT22;52756;52.826;6.214;2023-03-11T08:02:39;2.40;77.40
54938;DHT22;52756;52.826;6.214;2023-03-11T08:05:05;2.50;77.40
54938;DHT22;52756;52.826;6.214;2023-03-11T08:07:31;2.60;77.30
54938;DHT22;52756;52.826;6.214;2023-03-11T08:09:57;2.70;77.20
54938;DHT22;52756;52.826;6.214;2023-03-11T08:12:23;2.90;77.20
54938;DHT22;52756;52.826;6.214;2023-03-11T08:14:49;2.80;77.10
54938;DHT22;52756;52.826;6.214;2023-03-11T08:17:14;2.90;77.30
54938;DHT22;52756;52.826;6.214;2023-03-11T08:19:40;3.00;77.60
54938;DHT22;52756;52.826;6.214;2023-03-11T08:22:06;3.20;77.80
54938;DHT22;52756;52.826;6.214;2023-03-11T08:24:32;3.40;77.70
54938;DHT22;52756;52.826;6.214;2023-03-11T08:26:57;4.10;78.30
54938;DHT22;52756;52.826;6.214;2023-03-11T08:29:23;4.10;77.70
54938;DHT22;52756;52.826;6.214;2023-03-11T08:31:49;4.40;77.00
54938;DHT22;52756;52.826;6.214;2023-03-11T08:34:15;4.80;76.30
54938;DHT22;52756;52.826;6.214;2023-03-11T08:36:41;5.20;75.10
54938;DHT22;52756;52.826;6.214;2023-03-11T08:39:07;5.60;74.00
54938;DHT22;52756;52.826;6.214;2023-03-11T08:41:32;6.00;73.10
54938;DHT22;52756;52.826;6.214;2023-03-11T08:43:58;6.40;71.70
54938;DHT22;52756;52.826;6.214;2023-03-11T08:46:27;6.80;71.20
54938;DHT22;52756;52.826;6.214;2023-03-11T08:48:54;7.20;69.20
54938;DHT22;52756;52.826;6.214;2023-03-11T08:51:21;7.50;68.90
54938;DHT22;52756;52.826;6.214;2023-03-11T08:53:47;7.90;67.80
54938;DHT22;52756;52.826;6.214;2023-03-11T08:56:12;8.10;66.30
54938;DHT22;52756;52.826;6.214;2023-03-11T08:58:38;8.40;64.20
54938;DHT22;52756;52.826;6.214;2023-03-11T09:01:05;8.70;64.50
54938;DHT22;52756;52.826;6.214;2023-03-11T09:03:32;8.90;63.50
54938;DHT22;52756;52.826;6.214;2023-03-11T09:06:00;9.10;63.10
54938;DHT22;52756;52.826;6.214;2023-03-11T09:08:26;9.30;62.40
54938;DHT22;52756;52.826;6.214;2023-03-11T09:10:52;9.50;60.70
54938;DHT22;52756;52.826;6.214;2023-03-11T09:13:18;9.70;60.90
54938;DHT22;52756;52.826;6.214;2023-03-11T09:15:44;9.80;60.20
54938;DHT22;52756;52.826;6.214;2023-03-11T09:18:12;9.90;59.70
54938;DHT22;52756;52.826;6.214;2023-03-11T09:20:38;10.00;59.30
54938;DHT22;52756;52.826;6.214;2023-03-11T09:23:05;10.10;58.70
54938;DHT22;52756;52.826;6.214;2023-03-11T09:25:30;10.20;58.00
54938;DHT22;52756;52.826;6.214;2023-03-11T09:27:56;10.30;58.30
54938;DHT22;52756;52.826;6.214;2023-03-11T09:30:22;10.30;57.90
54938;DHT22;52756;52.826;6.214;2023-03-11T09:32:48;10.30;57.40
54938;DHT22;52756;52.826;6.214;2023-03-11T09:35:14;10.40;57.30
54938;DHT22;52756;52.826;6.214;2023-03-11T09:37:40;10.40;56.70
54938;DHT22;52756;52.826;6.214;2023-03-11T09:40:06;10.30;56.80
54938;DHT22;52756;52.826;6.214;2023-03-11T09:42:49;10.40;56.40
54938;DHT22;52756;52.826;6.214;2023-03-11T09:51:02;10.20;56.60
54938;DHT22;52756;52.826;6.214;2023-03-11T09:53:43;10.20;56.60
54938;DHT22;52756;52.826;6.214;2023-03-11T09:56:27;10.20;57.10
54938;DHT22;52756;52.826;6.214;2023-03-11T09:59:29;10.10;56.60
54938;DHT22;52756;52.826;6.214;2023-03-11T10:01:48;10.10;57.10
54938;DHT22;52756;52.826;6.214;2023-03-11T10:06:46;10.10;57.20
54938;DHT22;52756;52.826;6.214;2023-03-11T10:26:14;9.80;58.00
54938;DHT22;52756;52.826;6.214;2023-03-11T10:28:43;9.70;58.00
54938;DHT22;52756;52.826;6.214;2023-03-11T10:31:20;9.60;57.70
54938;DHT22;52756;52.826;6.214;2023-03-11T10:33:56;9.50;57.60
54938;DHT22;52756;52.826;6.214;2023-03-11T10:36:28;9.40;57.40
54938;DHT22;52756;52.826;6.214;2023-03-11T10:38:59;9.30;57.50
54938;DHT22;52756;52.826;6.214;2023-03-11T10:41:40;9.20;57.80
54938;DHT22;52756;52.826;6.214;2023-03-11T10:46:47;8.90;58.10
54938;DHT22;52756;52.826;6.214;2023-03-11T10:49:14;8.90;58.70
54938;DHT22;52756;52.826;6.214;2023-03-11T10:51:47;8.80;59.00
54938;DHT22;52756;52.826;6.214;2023-03-11T10:59:49;8.50;58.80
54938;DHT22;52756;52.826;6.214;2023-03-11T11:02:24;8.40;58.80
54938;DHT22;52756;52.826;6.214;2023-03-11T11:07:40;8.30;58.90
54938;DHT22;52756;52.826;6.214;2023-03-11T11:18:05;7.90;58.90
54938;DHT22;52756;52.826;6.214;2023-03-11T11:20:32;7.80;59.30
54938;DHT22;52756;52.826;6.214;2023-03-11T11:23:03;7.80;59.70
54938;DHT22;52756;52.826;6.214;2023-03-11T11:28:02;7.70;59.80
54938;DHT22;52756;52.826;6.214;2023-03-11T11:30:30;7.70;59.80
54938;DHT22;52756;52.826;6.214;2023-03-11T11:32:55;7.70;60.40
54938;DHT22;52756;52.826;6.214;2023-03-11T11:35:52;7.60;60.00
54938;DHT22;52756;52.826;6.214;2023-03-11T11:38:22;7.60;59.70
54938;DHT22;52756;52.826;6.214;2023-03-11T11:40:49;7.60;59.80
54938;DHT22;52756;52.826;6.214;2023-03-11T11:43:18;7.60;59.80
54938;DHT22;52756;52.826;6.214;2023-03-11T11:45:56;7.50;59.60
54938;DHT22;52756;52.826;6.214;2023-03-11T11:49:04;7.50;59.50
54938;DHT22;52756;52.826;6.214;2023-03-11T11:51:46;7.50;59.40
54938;DHT22;52756;52.826;6.214;2023-03-11T11:56:55;7.40;59.60
54938;DHT22;52756;52.826;6.214;2023-03-11T11:59:22;7.40;59.40
54938;DHT22;52756;52.826;6.214;2023-03-11T12:04:48;7.40;59.20
54938;DHT22;52756;52.826;6.214;2023-03-11T12:07:24;7.40;59.30
54938;DHT22;52756;52.826;6.214;2023-03-11T12:12:26;7.30;59.60
54938;DHT22;52756;52.826;6.214;2023-03-11T12:17:26;7.30;59.30
54938;DHT22;52756;52.826;6.214;2023-03-11T12:20:02;7.30;59.40
54938;DHT22;52756;52.826;6.214;2023-03-11T12:28:41;7.30;59.40
54938;DHT22;52756;52.826;6.214;2023-03-11T12:31:10;7.30;59.20
54938;DHT22;52756;52.826;6.214;2023-03-11T12:33:42;7.30;59.20
54938;DHT22;52756;52.826;6.214;2023-03-11T12:36:24;7.30;58.40
54938;DHT22;52756;52.826;6.214;2023-03-11T12:38:53;7.30;58.20
54938;DHT22;52756;52.826;6.214;2023-03-11T12:41:38;7.30;58.40
54938;DHT22;52756;52.826;6.214;2023-03-11T12:44:28;7.30;58.60
54938;DHT22;52756;52.826;6.214;2023-03-11T12:49:34;7.40;59.20
54938;DHT22;52756;52.826;6.214;2023-03-11T12:54:35;7.40;59.00
54938;DHT22;52756;52.826;6.214;2023-03-11T13:05:50;7.40;58.00
54938;DHT22;52756;52.826;6.214;2023-03-11T13:08:22;7.50;58.20
54938;DHT22;52756;52.826;6.214;2023-03-11T13:10:53;7.50;58.60
54938;DHT22;52756;52.826;6.214;2023-03-11T13:13:40;7.50;58.50
54938;DHT22;52756;52.826;6.214;2023-03-11T13:18:52;7.60;58.10
54938;DHT22;52756;52.826;6.214;2023-03-11T13:27:27;7.60;58.30
54938;DHT22;52756;52.826;6.214;2023-03-11T13:41:18;7.50;57.70
54938;DHT22;52756;52.826;6.214;2023-03-11T13:43:47;7.60;58.50
54938;DHT22;52756;52.826;6.214;2023-03-11T13:46:29;7.60;58.60
54938;DHT22;52756;52.826;6.214;2023-03-11T13:52:22;7.70;57.90
54938;DHT22;52756;52.826;6.214;2023-03-11T13:57:39;7.70;58.50
54938;DHT22;52756;52.826;6.214;2023-03-11T14:00:15;7.80;58.70
54938;DHT22;52756;52.826;6.214;2023-03-11T14:03:08;7.70;59.10
54938;DHT22;52756;52.826;6.214;2023-03-11T14:05:38;7.80;58.70
54938;DHT22;52756;52.826;6.214;2023-03-11T14:11:00;7.80;58.80
54938;DHT22;52756;52.826;6.214;2023-03-11T14:13:46;7.80;58.80
54938;DHT22;52756;52.826;6.214;2023-03-11T14:16:24;7.80;58.30
54938;DHT22;52756;52.826;6.214;2023-03-11T14:19:12;7.80;58.20
54938;DHT22;52756;52.826;6.214;2023-03-11T14:21:46;7.80;58.00
54938;DHT22;52756;52.826;6.214;2023-03-11T14:24:29;7.90;58.10
54938;DHT22;52756;52.826;6.214;2023-03-11T14:26:57;7.80;58.00
54938;DHT22;52756;52.826;6.214;2023-03-11T14:29:32;7.80;57.90
54938;DHT22;52756;52.826;6.214;2023-03-11T14:32:00;7.80;57.90
54938;DHT22;52756;52.826;6.214;2023-03-11T14:34:39;7.80;58.00
54938;DHT22;52756;52.826;6.214;2023-03-11T14:39:57;7.80;58.50
54938;DHT22;52756;52.826;6.214;2023-03-11T14:42:27;7.70;58.90
54938;DHT22;52756;52.826;6.214;2023-03-11T14:45:16;7.70;58.70
54938;DHT22;52756;52.826;6.214;2023-03-11T14:47:47;7.70;58.80
54938;DHT22;52756;52.826;6.214;2023-03-11T14:50:19;7.70;59.10
54938;DHT22;52756;52.826;6.214;2023-03-11T14:52:47;7.70;59.40
54938;DHT22;52756;52.826;6.214;2023-03-11T14:55:19;7.70;59.20
54938;DHT22;52756;52.826;6.214;2023-03-11T14:58:09;7.70;58.40
54938;DHT22;52756;52.826;6.214;2023-03-11T15:00:46;7.80;58.40
54938;DHT22;52756;52.826;6.214;2023-03-11T15:05:46;7.70;58.10
54938;DHT22;52756;52.826;6.214;2023-03-11T15:08:16;7.70;57.70
54938;DHT22;52756;52.826;6.214;2023-03-11T15:13:40;7.70;57.50
54938;DHT22;52756;52.826;6.214;2023-03-11T15:16:21;7.70;57.40
54938;DHT22;52756;52.826;6.214;2023-03-11T15:18:47;7.60;57.20
54938;DHT22;52756;52.826;6.214;2023-03-11T15:21:18;7.60;57.30
54938;DHT22;52756;52.826;6.214;2023-03-11T15:23:47;7.60;57.10
54938;DHT22;52756;52.826;6.214;2023-03-11T15:26:27;7.60;56.90
54938;DHT22;52756;52.826;6.214;2023-03-11T15:28:59;7.60;56.90
54938;DHT22;52756;52.826;6.214;2023-03-11T15:31:32;7.60;57.60
54938;DHT22;52756;52.826;6.214;2023-03-11T15:34:29;7.60;57.60
54938;DHT22;52756;52.826;6.214;2023-03-11T15:37:01;7.50;57.90
54938;DHT22;52756;52.826;6.214;2023-03-11T15:39:40;7.50;58.50
54938;DHT22;52756;52.826;6.214;2023-03-11T15:44:40;7.40;59.20
54938;DHT22;52756;52.826;6.214;2023-03-11T15:47:19;7.30;59.60
54938;DHT22;52756;52.826;6.214;2023-03-11T15:49:45;7.20;60.00
54938;DHT22;52756;52.826;6.214;2023-03-11T15:52:11;7.10;60.50
54938;DHT22;52756;52.826;6.214;2023-03-11T15:54:37;7.10;60.80
54938;DHT22;52756;52.826;6.214;2023-03-11T15:57:08;7.10;61.20
54938;DHT22;52756;52.826;6.214;2023-03-11T15:59:35;7.00;61.60
54938;DHT22;52756;52.826;6.214;2023-03-11T16:02:02;7.00;61.80
54938;DHT22;52756;52.826;6.214;2023-03-11T16:04:28;7.00;61.90
54938;DHT22;52756;52.826;6.214;2023-03-11T16:06:54;6.90;61.80
54938;DHT22;52756;52.826;6.214;2023-03-11T16:09:20;6.90;62.10
54938;DHT22;52756;52.826;6.214;2023-03-11T16:11:45;6.80;62.20
54938;DHT22;52756;52.826;6.214;2023-03-11T16:14:17;6.80;62.50
54938;DHT22;52756;52.826;6.214;2023-03-11T16:16:43;6.80;62.80
54938;DHT22;52756;52.826;6.214;2023-03-11T16:19:09;6.70;62.90
54938;DHT22;52756;52.826;6.214;2023-03-11T16:21:41;6.70;63.00
54938;DHT22;52756;52.826;6.214;2023-03-11T16:24:14;6.60;63.00
54938;DHT22;52756;52.826;6.214;2023-03-11T16:26:42;6.60;63.20
54938;DHT22;52756;52.826;6.214;2023-03-11T16:29:07;6.50;63.80
54938;DHT22;52756;52.826;6.214;2023-03-11T16:31:35;6.40;63.60
54938;DHT22;52756;52.826;6.214;2023-03-11T16:34:01;6.40;64.00
54938;DHT22;52756;52.826;6.214;2023-03-11T16:36:26;6.20;64.20
54938;DHT22;52756;52.826;6.214;2023-03-11T16:38:52;6.10;64.70
54938;DHT22;52756;52.826;6.214;2023-03-11T16:41:18;6.00;65.40
54938;DHT22;52756;52.826;6.214;2023-03-11T16:43:43;5.90;66.00
54938;DHT22;52756;52.826;6.214;2023-03-11T16:46:09;5.80;66.40
54938;DHT22;52756;52.826;6.214;2023-03-11T16:48:35;5.70;66.90
54938;DHT22;52756;52.826;6.214;2023-03-11T16:51:01;5.50;68.00
54938;DHT22;52756;52.826;6.214;2023-03-11T16:53:27;5.40;68.40
54938;DHT22;52756;52.826;6.214;2023-03-11T16:55:52;5.30;68.80
54938;DHT22;52756;52.826;6.214;2023-03-11T16:58:19;5.30;69.30
54938;DHT22;52756;52.826;6.214;2023-03-11T17:00:45;5.20;69.60
54938;DHT22;52756;52.826;6.214;2023-03-11T17:03:12;5.10;70.10
54938;DHT22;52756;52.826;6.214;2023-03-11T17:05:38;5.10;69.90
54938;DHT22;52756;52.826;6.214;2023-03-11T17:08:04;5.00;70.00
54938;DHT22;52756;52.826;6.214;2023-03-11T17:10:39;5.00;70.10
54938;DHT22;52756;52.826;6.214;2023-03-11T17:13:06;4.90;70.40
54938;DHT22;52756;52.826;6.214;2023-03-11T17:15:32;4.90;70.60
54938;DHT22;52756;52.826;6.214;2023-03-11T17:18:00;4.90;70.70
54938;DHT22;52756;52.826;6.214;2023-03-11T17:20:26;4.80;70.80
54938;DHT22;52756;52.826;6.214;2023-03-11T17:22:51;4.80;71.10
54938;DHT22;52756;52.826;6.214;2023-03-11T17:25:18;4.80;71.30
54938;DHT22;52756;52.826;6.214;2023-03-11T17:27:43;4.80;71.50
54938;DHT22;52756;52.826;6.214;2023-03-11T17:30:10;4.90;71.70
54938;DHT22;52756;52.826;6.214;2023-03-11T17:32:36;4.80;71.70
54938;DHT22;52756;52.826;6.214;2023-03-11T17:35:02;5.10;71.90
54938;DHT22;52756;52.826;6.214;2023-03-11T17:37:28;4.90;71.90
54938;DHT22;52756;52.826;6.214;2023-03-11T17:39:53;4.90;71.80
54938;DHT22;52756;52.826;6.214;2023-03-11T17:42:19;4.90;71.80
54938;DHT22;52756;52.826;6.214;2023-03-11T17:44:45;4.90;71.80
54938;DHT22;52756;52.826;6.214;2023-03-11T17:47:10;4.90;71.80
54938;DHT22;52756;52.826;6.214;2023-03-11T17:49:36;5.00;72.30
54938;DHT22;52756;52.826;6.214;2023-03-11T17:52:02;4.90;71.70
54938;DHT22;52756;52.826;6.214;2023-03-11T17:54:28;4.90;71.70
54938;DHT22;52756;52.826;6.214;2023-03-11T17:56:54;5.00;71.70
54938;DHT22;52756;52.826;6.214;2023-03-11T17:59:20;4.90;71.60
54938;DHT22;52756;52.826;6.214;2023-03-11T18:01:46;4.90;71.60